sensor_id;sensor_type;location;lat;lon;timestamp;pressure;altitude;pressure_sealevel;temperature;humidity
50226;BME280;36113;50.742;6.432;2023-07-09T00:00:40;98981.75;;;22.81;55.21
50226;BME280;36113;50.742;6.432;2023-07-09T00:03:06;98977.94;;;22.73;54.96
50226;BME280;36113;50.742;6.432;2023-07-09T00:05:34;98960.28;;;22.65;55.20
50226;BME280;36113;50.742;6.432;2023-07-09T00:07:59;98988.09;;;22.81;55.04
50226;BME280;36113;50.742;6.432;2023-07-09T00:10:25;98993.75;;;22.85;55.06
50226;BME280;36113;50.742;6.432;2023-07-09T00:12:50;98994.44;;;22.82;55.17
50226;BME280;36113;50.742;6.432;2023-07-09T00:15:16;98960.97;;;22.62;55.64
50226;BME280;36113;50.742;6.432;2023-07-09T00:17:43;98978.72;;;22.73;55.68
50226;BME280;36113;50.742;6.432;2023-07-09T00:20:14;98959.16;;;22.54;55.61
50226;BME280;36113;50.742;6.432;2023-07-09T00:22:43;98996.53;;;22.72;55.61
50226;BME280;36113;50.742;6.432;2023-07-09T00:25:18;98994.22;;;22.50;56.77
50226;BME280;36113;50.742;6.432;2023-07-09T00:27:43;98984.41;;;22.28;57.79
50226;BME280;36113;50.742;6.432;2023-07-09T00:30:21;98957.91;;;21.94;58.67
50226;BME280;36113;50.742;6.432;2023-07-09T00:32:48;98996.81;;;21.97;60.01
50226;BME280;36113;50.742;6.432;2023-07-09T00:35:13;98996.19;;;21.79;60.60
50226;BME280;36113;50.742;6.432;2023-07-09T00:37:43;98977.00;;;21.62;60.15
50226;BME280;36113;50.742;6.432;2023-07-09T00:40:20;98964.66;;;21.59;59.96
50226;BME280;36113;50.742;6.432;2023-07-09T00:42:49;98965.69;;;21.55;60.02
50226;BME280;36113;50.742;6.432;2023-07-09T00:45:26;98990.66;;;21.79;59.44
50226;BME280;36113;50.742;6.432;2023-07-09T00:48:01;98995.28;;;21.87;58.95
50226;BME280;36113;50.742;6.432;2023-07-09T00:50:48;98994.25;;;21.92;58.33
50226;BME280;36113;50.742;6.432;2023-07-09T00:53:19;98988.03;;;21.95;57.61
50226;BME280;36113;50.742;6.432;2023-07-09T00:55:50;98985.03;;;22.00;57.35
50226;BME280;36113;50.742;6.432;2023-07-09T00:58:19;99005.47;;;22.20;56.91
50226;BME280;36113;50.742;6.432;2023-07-09T01:00:49;98925.13;;;21.71;56.96
50226;BME280;36113;50.742;6.432;2023-07-09T01:03:30;98998.00;;;22.21;56.82
50226;BME280;36113;50.742;6.432;2023-07-09T01:05:58;99005.38;;;22.17;57.02
50226;BME280;36113;50.742;6.432;2023-07-09T01:08:24;99012.50;;;22.18;57.05
50226;BME280;36113;50.742;6.432;2023-07-09T01:10:50;98999.03;;;22.16;57.12
50226;BME280;36113;50.742;6.432;2023-07-09T01:13:16;99012.34;;;22.23;56.92
50226;BME280;36113;50.742;6.432;2023-07-09T01:15:43;99003.81;;;22.28;56.24
50226;BME280;36113;50.742;6.432;2023-07-09T01:18:08;99006.56;;;22.28;55.88
50226;BME280;36113;50.742;6.432;2023-07-09T01:20:38;99021.91;;;22.38;55.88
50226;BME280;36113;50.742;6.432;2023-07-09T01:23:03;98981.88;;;22.23;56.09
50226;BME280;36113;50.742;6.432;2023-07-09T01:25:31;98999.28;;;22.36;55.70
50226;BME280;36113;50.742;6.432;2023-07-09T01:27:57;98976.44;;;22.26;55.76
50226;BME280;36113;50.742;6.432;2023-07-09T01:30:30;99015.94;;;22.48;55.67
50226;BME280;36113;50.742;6.432;2023-07-09T01:32:58;98984.88;;;22.30;55.84
50226;BME280;36113;50.742;6.432;2023-07-09T01:35:25;99018.69;;;22.48;55.53
50226;BME280;36113;50.742;6.432;2023-07-09T01:37:51;99009.59;;;22.47;55.56
50226;BME280;36113;50.742;6.432;2023-07-09T01:40:20;98978.16;;;22.19;55.69
50226;BME280;36113;50.742;6.432;2023-07-09T01:42:45;99012.22;;;22.31;56.35
50226;BME280;36113;50.742;6.432;2023-07-09T01:45:11;99008.94;;;22.17;56.73
50226;BME280;36113;50.742;6.432;2023-07-09T01:47:38;98969.44;;;21.83;57.51
50226;BME280;36113;50.742;6.432;2023-07-09T01:50:04;99010.41;;;21.90;58.60
50226;BME280;36113;50.742;6.432;2023-07-09T01:52:33;98978.41;;;21.68;58.88
50226;BME280;36113;50.742;6.432;2023-07-09T01:54:59;98983.00;;;21.76;58.16
50226;BME280;36113;50.742;6.432;2023-07-09T01:57:25;98996.44;;;21.86;57.77
50226;BME280;36113;50.742;6.432;2023-07-09T01:59:54;99016.09;;;22.06;57.25
50226;BME280;36113;50.742;6.432;2023-07-09T02:02:21;99014.91;;;22.07;57.12
50226;BME280;36113;50.742;6.432;2023-07-09T02:04:47;99016.09;;;22.06;57.26
50226;BME280;36113;50.742;6.432;2023-07-09T02:07:13;99012.75;;;22.13;56.94
50226;BME280;36113;50.742;6.432;2023-07-09T02:09:38;99010.13;;;22.16;56.40
50226;BME280;36113;50.742;6.432;2023-07-09T02:12:04;98978.81;;;22.03;56.42
50226;BME280;36113;50.742;6.432;2023-07-09T02:14:29;98999.47;;;22.18;56.39
50226;BME280;36113;50.742;6.432;2023-07-09T02:16:54;98988.16;;;22.11;56.37
50226;BME280;36113;50.742;6.432;2023-07-09T02:19:20;98939.47;;;21.85;56.28
50226;BME280;36113;50.742;6.432;2023-07-09T02:21:45;99008.16;;;22.29;56.20
50226;BME280;36113;50.742;6.432;2023-07-09T02:24:11;99005.19;;;22.34;55.92
50226;BME280;36113;50.742;6.432;2023-07-09T02:26:36;98967.66;;;22.12;55.92
50226;BME280;36113;50.742;6.432;2023-07-09T02:29:01;98973.75;;;22.18;55.88
50226;BME280;36113;50.742;6.432;2023-07-09T02:31:26;99012.47;;;22.39;55.89
50226;BME280;36113;50.742;6.432;2023-07-09T02:33:55;99015.00;;;22.44;55.79
50226;BME280;36113;50.742;6.432;2023-07-09T02:36:21;98979.22;;;22.26;56.01
50226;BME280;36113;50.742;6.432;2023-07-09T02:38:46;98997.34;;;22.36;56.18
50226;BME280;36113;50.742;6.432;2023-07-09T02:41:11;98999.19;;;22.44;56.16
50226;BME280;36113;50.742;6.432;2023-07-09T02:43:37;99016.41;;;22.50;56.26
50226;BME280;36113;50.742;6.432;2023-07-09T02:46:02;99006.72;;;22.56;56.72
50226;BME280;36113;50.742;6.432;2023-07-09T02:48:28;99017.41;;;22.58;56.47
50226;BME280;36113;50.742;6.432;2023-07-09T02:50:53;99015.25;;;22.63;56.55
50226;BME280;36113;50.742;6.432;2023-07-09T02:53:18;99013.72;;;22.66;56.43
50226;BME280;36113;50.742;6.432;2023-07-09T02:55:43;99011.66;;;22.75;55.72
50226;BME280;36113;50.742;6.432;2023-07-09T02:58:09;99008.06;;;22.75;55.82
50226;BME280;36113;50.742;6.432;2023-07-09T03:00:34;99009.47;;;22.68;55.78
50226;BME280;36113;50.742;6.432;2023-07-09T03:02:59;98981.31;;;22.54;55.60
50226;BME280;36113;50.742;6.432;2023-07-09T03:05:25;99006.34;;;22.70;55.77
50226;BME280;36113;50.742;6.432;2023-07-09T03:07:50;99018.44;;;22.78;55.65
50226;BME280;36113;50.742;6.432;2023-07-09T03:10:16;99007.59;;;22.72;55.32
50226;BME280;36113;50.742;6.432;2023-07-09T03:12:41;99023.78;;;22.83;55.20
50226;BME280;36113;50.742;6.432;2023-07-09T03:15:06;99009.22;;;22.73;55.00
50226;BME280;36113;50.742;6.432;2023-07-09T03:17:32;98984.63;;;22.60;54.59
50226;BME280;36113;50.742;6.432;2023-07-09T03:19:57;99015.56;;;22.86;54.79
50226;BME280;36113;50.742;6.432;2023-07-09T03:22:22;99022.72;;;22.87;54.96
50226;BME280;36113;50.742;6.432;2023-07-09T03:24:48;99007.81;;;22.80;54.57
50226;BME280;36113;50.742;6.432;2023-07-09T03:27:13;99013.38;;;22.80;54.65
50226;BME280;36113;50.742;6.432;2023-07-09T03:29:38;99027.44;;;22.87;54.75
50226;BME280;36113;50.742;6.432;2023-07-09T03:32:04;98953.59;;;22.42;54.80
50226;BME280;36113;50.742;6.432;2023-07-09T03:34:29;99010.97;;;22.78;54.86
50226;BME280;36113;50.742;6.432;2023-07-09T03:36:55;99032.19;;;22.99;54.57
50226;BME280;36113;50.742;6.432;2023-07-09T03:39:20;99023.75;;;22.95;54.27
50226;BME280;36113;50.742;6.432;2023-07-09T03:41:45;99020.75;;;23.00;54.09
50226;BME280;36113;50.742;6.432;2023-07-09T03:44:11;99029.19;;;23.04;54.48
50226;BME280;36113;50.742;6.432;2023-07-09T03:46:36;99029.06;;;23.00;53.89
50226;BME280;36113;50.742;6.432;2023-07-09T03:49:01;99042.34;;;23.07;54.03
50226;BME280;36113;50.742;6.432;2023-07-09T03:51:27;99026.63;;;23.11;53.57
50226;BME280;36113;50.742;6.432;2023-07-09T03:53:53;99019.03;;;23.08;53.62
50226;BME280;36113;50.742;6.432;2023-07-09T03:56:18;99029.94;;;23.29;52.50
50226;BME280;36113;50.742;6.432;2023-07-09T03:58:43;99043.53;;;23.46;52.12
50226;BME280;36113;50.742;6.432;2023-07-09T04:01:09;99020.41;;;23.42;51.61
50226;BME280;36113;50.742;6.432;2023-07-09T04:03:34;99050.75;;;23.63;51.14
50226;BME280;36113;50.742;6.432;2023-07-09T04:05:59;99049.97;;;23.63;51.19
50226;BME280;36113;50.742;6.432;2023-07-09T04:08:25;99047.25;;;23.66;51.09
50226;BME280;36113;50.742;6.432;2023-07-09T04:10:53;99051.41;;;23.72;50.95
50226;BME280;36113;50.742;6.432;2023-07-09T04:13:20;99053.38;;;23.72;50.92
50226;BME280;36113;50.742;6.432;2023-07-09T04:15:45;99041.25;;;23.64;51.58
50226;BME280;36113;50.742;6.432;2023-07-09T04:18:11;99046.47;;;23.66;51.46
50226;BME280;36113;50.742;6.432;2023-07-09T04:20:36;99038.47;;;23.64;51.65
50226;BME280;36113;50.742;6.432;2023-07-09T04:23:01;98984.22;;;23.23;51.62
50226;BME280;36113;50.742;6.432;2023-07-09T04:25:27;99039.19;;;23.61;51.89
50226;BME280;36113;50.742;6.432;2023-07-09T04:27:53;99047.19;;;23.63;51.41
50226;BME280;36113;50.742;6.432;2023-07-09T04:30:18;99036.44;;;23.61;51.64
50226;BME280;36113;50.742;6.432;2023-07-09T04:32:44;99042.53;;;23.67;51.78
50226;BME280;36113;50.742;6.432;2023-07-09T04:35:12;99043.81;;;23.69;51.36
50226;BME280;36113;50.742;6.432;2023-07-09T04:37:39;99043.44;;;23.71;51.25
50226;BME280;36113;50.742;6.432;2023-07-09T04:40:06;98974.22;;;23.34;51.03
50226;BME280;36113;50.742;6.432;2023-07-09T04:42:33;99045.41;;;23.83;50.90
50226;BME280;36113;50.742;6.432;2023-07-09T04:44:58;99045.22;;;23.91;50.52
50226;BME280;36113;50.742;6.432;2023-07-09T04:47:24;99004.81;;;23.78;50.41
50226;BME280;36113;50.742;6.432;2023-07-09T04:49:49;99040.84;;;24.06;50.14
50226;BME280;36113;50.742;6.432;2023-07-09T04:52:15;99044.53;;;24.10;50.04
50226;BME280;36113;50.742;6.432;2023-07-09T04:54:41;99039.09;;;24.14;50.01
50226;BME280;36113;50.742;6.432;2023-07-09T04:57:10;99038.81;;;24.19;50.09
50226;BME280;36113;50.742;6.432;2023-07-09T04:59:36;99039.44;;;24.28;49.80
50226;BME280;36113;50.742;6.432;2023-07-09T05:02:01;99004.13;;;24.13;49.65
50226;BME280;36113;50.742;6.432;2023-07-09T05:04:27;99033.88;;;24.44;48.80
50226;BME280;36113;50.742;6.432;2023-07-09T05:06:53;99025.84;;;24.55;49.43
50226;BME280;36113;50.742;6.432;2023-07-09T05:09:18;99030.06;;;24.65;49.19
50226;BME280;36113;50.742;6.432;2023-07-09T05:11:43;99021.09;;;24.71;49.27
50226;BME280;36113;50.742;6.432;2023-07-09T05:14:09;99031.63;;;24.82;48.42
50226;BME280;36113;50.742;6.432;2023-07-09T05:16:34;99026.34;;;24.92;48.37
50226;BME280;36113;50.742;6.432;2023-07-09T05:18:59;99026.13;;;25.01;48.28
50226;BME280;36113;50.742;6.432;2023-07-09T05:21:25;98990.13;;;24.89;48.30
50226;BME280;36113;50.742;6.432;2023-07-09T05:23:50;98995.53;;;25.01;48.30
50226;BME280;36113;50.742;6.432;2023-07-09T05:26:15;99023.66;;;25.31;47.69
50226;BME280;36113;50.742;6.432;2023-07-09T05:28:41;98977.09;;;25.12;47.77
50226;BME280;36113;50.742;6.432;2023-07-09T05:31:06;99015.66;;;25.49;47.91
50226;BME280;36113;50.742;6.432;2023-07-09T05:33:32;99011.88;;;25.57;48.06
50226;BME280;36113;50.742;6.432;2023-07-09T05:35:57;98986.59;;;25.47;47.55
50226;BME280;36113;50.742;6.432;2023-07-09T05:38:22;99014.13;;;25.71;47.84
50226;BME280;36113;50.742;6.432;2023-07-09T05:40:48;99018.28;;;25.81;47.33
50226;BME280;36113;50.742;6.432;2023-07-09T05:43:13;99007.31;;;25.88;46.95
50226;BME280;36113;50.742;6.432;2023-07-09T05:45:39;99018.41;;;26.08;47.17
50226;BME280;36113;50.742;6.432;2023-07-09T05:48:05;99015.56;;;26.27;46.11
50226;BME280;36113;50.742;6.432;2023-07-09T05:50:33;99014.53;;;26.35;45.44
50226;BME280;36113;50.742;6.432;2023-07-09T05:52:59;98997.59;;;26.25;45.51
50226;BME280;36113;50.742;6.432;2023-07-09T05:55:24;98985.88;;;26.38;45.48
50226;BME280;36113;50.742;6.432;2023-07-09T05:57:51;99013.44;;;26.67;44.28
50226;BME280;36113;50.742;6.432;2023-07-09T06:00:17;99004.41;;;26.73;44.03
50226;BME280;36113;50.742;6.432;2023-07-09T06:02:42;98999.78;;;26.84;44.02
50226;BME280;36113;50.742;6.432;2023-07-09T06:05:08;99026.88;;;27.14;44.01
50226;BME280;36113;50.742;6.432;2023-07-09T06:07:36;99021.00;;;27.19;43.53
50226;BME280;36113;50.742;6.432;2023-07-09T06:10:02;99034.38;;;27.33;43.42
50226;BME280;36113;50.742;6.432;2023-07-09T06:12:27;99031.78;;;27.48;43.18
50226;BME280;36113;50.742;6.432;2023-07-09T06:14:52;99006.50;;;27.37;42.04
50226;BME280;36113;50.742;6.432;2023-07-09T06:17:18;99014.19;;;27.47;42.98
50226;BME280;36113;50.742;6.432;2023-07-09T06:19:43;99027.53;;;27.61;42.97
50226;BME280;36113;50.742;6.432;2023-07-09T06:22:09;99032.06;;;27.73;42.13
50226;BME280;36113;50.742;6.432;2023-07-09T06:24:34;99005.22;;;27.61;42.62
50226;BME280;36113;50.742;6.432;2023-07-09T06:26:59;99041.09;;;27.96;42.62
50226;BME280;36113;50.742;6.432;2023-07-09T06:29:25;99045.75;;;28.19;42.25
50226;BME280;36113;50.742;6.432;2023-07-09T06:31:50;98999.66;;;28.02;41.88
50226;BME280;36113;50.742;6.432;2023-07-09T06:34:16;99043.09;;;28.33;42.42
50226;BME280;36113;50.742;6.432;2023-07-09T06:36:41;99043.69;;;28.50;42.94
50226;BME280;36113;50.742;6.432;2023-07-09T06:39:06;99036.50;;;28.56;42.83
50226;BME280;36113;50.742;6.432;2023-07-09T06:41:32;99040.66;;;28.73;42.59
50226;BME280;36113;50.742;6.432;2023-07-09T06:44:07;99045.56;;;28.90;42.79
50226;BME280;36113;50.742;6.432;2023-07-09T06:46:33;99019.47;;;28.75;42.19
50226;BME280;36113;50.742;6.432;2023-07-09T06:48:58;99042.81;;;28.97;42.00
50226;BME280;36113;50.742;6.432;2023-07-09T06:51:24;99028.03;;;29.00;42.48
50226;BME280;36113;50.742;6.432;2023-07-09T06:53:49;99037.84;;;29.28;42.39
50226;BME280;36113;50.742;6.432;2023-07-09T06:56:15;99044.28;;;29.39;42.46
50226;BME280;36113;50.742;6.432;2023-07-09T06:58:41;99041.06;;;29.37;42.04
50226;BME280;36113;50.742;6.432;2023-07-09T07:01:06;99049.56;;;29.52;42.44
50226;BME280;36113;50.742;6.432;2023-07-09T07:03:32;99046.38;;;29.64;43.11
50226;BME280;36113;50.742;6.432;2023-07-09T07:05:58;99042.06;;;29.74;42.76
50226;BME280;36113;50.742;6.432;2023-07-09T07:08:25;99011.91;;;29.45;42.42
50226;BME280;36113;50.742;6.432;2023-07-09T07:10:55;99041.09;;;29.41;42.11
50226;BME280;36113;50.742;6.432;2023-07-09T07:13:30;99046.78;;;29.59;42.37
50226;BME280;36113;50.742;6.432;2023-07-09T07:15:56;99041.28;;;29.84;42.15
50226;BME280;36113;50.742;6.432;2023-07-09T07:18:21;99044.13;;;30.02;41.58
50226;BME280;36113;50.742;6.432;2023-07-09T07:20:46;99040.53;;;29.94;41.36
50226;BME280;36113;50.742;6.432;2023-07-09T07:23:12;99048.94;;;30.01;41.81
50226;BME280;36113;50.742;6.432;2023-07-09T07:25:37;99043.78;;;30.14;41.52
50226;BME280;36113;50.742;6.432;2023-07-09T07:28:03;99053.81;;;30.22;40.28
50226;BME280;36113;50.742;6.432;2023-07-09T07:30:28;99040.16;;;30.24;41.41
50226;BME280;36113;50.742;6.432;2023-07-09T07:32:53;99043.03;;;30.42;41.05
50226;BME280;36113;50.742;6.432;2023-07-09T07:35:19;99028.59;;;30.55;40.69
50226;BME280;36113;50.742;6.432;2023-07-09T07:37:44;99012.56;;;30.62;40.21
50226;BME280;36113;50.742;6.432;2023-07-09T07:40:11;99037.00;;;30.83;39.47
50226;BME280;36113;50.742;6.432;2023-07-09T07:42:36;99033.38;;;30.97;39.72
50226;BME280;36113;50.742;6.432;2023-07-09T07:45:02;99031.75;;;31.10;39.01
50226;BME280;36113;50.742;6.432;2023-07-09T07:47:29;99002.91;;;31.03;39.05
50226;BME280;36113;50.742;6.432;2023-07-09T07:49:55;99036.56;;;31.24;38.72
50226;BME280;36113;50.742;6.432;2023-07-09T07:52:21;98990.06;;;31.02;39.14
50226;BME280;36113;50.742;6.432;2023-07-09T07:54:46;99015.69;;;31.25;38.64
50226;BME280;36113;50.742;6.432;2023-07-09T07:57:12;99033.28;;;31.44;38.26
50226;BME280;36113;50.742;6.432;2023-07-09T07:59:37;99022.00;;;31.54;38.39
50226;BME280;36113;50.742;6.432;2023-07-09T08:02:05;99005.53;;;31.57;37.55
50226;BME280;36113;50.742;6.432;2023-07-09T08:04:31;99025.91;;;31.79;37.70
50226;BME280;36113;50.742;6.432;2023-07-09T08:06:56;99035.91;;;31.87;36.43
50226;BME280;36113;50.742;6.432;2023-07-09T08:09:21;99033.94;;;31.80;35.66
50226;BME280;36113;50.742;6.432;2023-07-09T08:11:47;99031.47;;;31.89;37.76
50226;BME280;36113;50.742;6.432;2023-07-09T08:14:14;99041.00;;;32.13;38.05
50226;BME280;36113;50.742;6.432;2023-07-09T08:16:40;99035.28;;;32.28;36.04
50226;BME280;36113;50.742;6.432;2023-07-09T08:19:05;99043.31;;;32.29;34.09
50226;BME280;36113;50.742;6.432;2023-07-09T08:21:31;99029.75;;;32.13;35.44
50226;BME280;36113;50.742;6.432;2023-07-09T08:23:56;99035.72;;;32.23;33.62
50226;BME280;36113;50.742;6.432;2023-07-09T08:26:21;99034.06;;;32.29;34.48
50226;BME280;36113;50.742;6.432;2023-07-09T08:28:49;99030.72;;;32.48;35.06
50226;BME280;36113;50.742;6.432;2023-07-09T08:31:14;99036.63;;;32.61;34.02
50226;BME280;36113;50.742;6.432;2023-07-09T08:33:39;99035.50;;;32.51;33.45
50226;BME280;36113;50.742;6.432;2023-07-09T08:36:05;99039.44;;;32.61;33.98
50226;BME280;36113;50.742;6.432;2023-07-09T08:38:30;99019.41;;;32.55;33.16
50226;BME280;36113;50.742;6.432;2023-07-09T08:41:02;99039.81;;;32.70;33.62
50226;BME280;36113;50.742;6.432;2023-07-09T08:43:33;99031.56;;;32.90;33.23
50226;BME280;36113;50.742;6.432;2023-07-09T08:48:41;99005.38;;;32.93;32.28
50226;BME280;36113;50.742;6.432;2023-07-09T08:51:13;98998.09;;;32.99;33.36
50226;BME280;36113;50.742;6.432;2023-07-09T08:53:53;99019.84;;;33.33;33.24
50226;BME280;36113;50.742;6.432;2023-07-09T08:56:22;99018.97;;;33.40;32.40
50226;BME280;36113;50.742;6.432;2023-07-09T08:58:48;99016.50;;;33.46;32.71
50226;BME280;36113;50.742;6.432;2023-07-09T09:01:29;99022.50;;;33.48;31.55
50226;BME280;36113;50.742;6.432;2023-07-09T09:04:04;99023.63;;;33.54;30.66
50226;BME280;36113;50.742;6.432;2023-07-09T09:06:31;99018.06;;;33.47;33.31
50226;BME280;36113;50.742;6.432;2023-07-09T09:09:17;99026.41;;;33.61;31.50
50226;BME280;36113;50.742;6.432;2023-07-09T09:11:59;98997.44;;;33.57;32.10
50226;BME280;36113;50.742;6.432;2023-07-09T09:14:32;99006.84;;;33.77;30.77
50226;BME280;36113;50.742;6.432;2023-07-09T09:16:59;98994.06;;;33.69;30.65
50226;BME280;36113;50.742;6.432;2023-07-09T09:19:29;99016.03;;;33.82;29.79
50226;BME280;36113;50.742;6.432;2023-07-09T09:22:01;99012.97;;;33.72;30.27
50226;BME280;36113;50.742;6.432;2023-07-09T09:24:37;99011.25;;;33.78;29.66
50226;BME280;36113;50.742;6.432;2023-07-09T09:27:03;99009.31;;;33.72;30.62
50226;BME280;36113;50.742;6.432;2023-07-09T09:29:28;99010.97;;;33.69;29.17
50226;BME280;36113;50.742;6.432;2023-07-09T09:31:56;98992.88;;;33.67;30.08
50226;BME280;36113;50.742;6.432;2023-07-09T09:34:25;98985.34;;;33.56;28.42
50226;BME280;36113;50.742;6.432;2023-07-09T09:36:52;99005.97;;;33.80;28.78
50226;BME280;36113;50.742;6.432;2023-07-09T09:39:18;99003.38;;;33.93;29.55
50226;BME280;36113;50.742;6.432;2023-07-09T09:41:44;99000.19;;;33.91;29.19
50226;BME280;36113;50.742;6.432;2023-07-09T09:44:20;98994.31;;;33.78;28.17
50226;BME280;36113;50.742;6.432;2023-07-09T09:46:48;99001.16;;;33.81;27.53
50226;BME280;36113;50.742;6.432;2023-07-09T09:49:13;98970.75;;;33.65;27.70
50226;BME280;36113;50.742;6.432;2023-07-09T09:51:40;98978.59;;;33.81;28.99
50226;BME280;36113;50.742;6.432;2023-07-09T09:54:16;98979.66;;;33.91;28.26
50226;BME280;36113;50.742;6.432;2023-07-09T09:56:43;98988.88;;;33.95;28.91
50226;BME280;36113;50.742;6.432;2023-07-09T09:59:25;98965.94;;;33.93;28.02
50226;BME280;36113;50.742;6.432;2023-07-09T10:02:00;98984.50;;;34.17;27.50
50226;BME280;36113;50.742;6.432;2023-07-09T10:04:26;98976.56;;;34.09;27.27
50226;BME280;36113;50.742;6.432;2023-07-09T10:06:56;98989.81;;;34.12;27.01
50226;BME280;36113;50.742;6.432;2023-07-09T10:09:50;98991.53;;;34.06;27.63
50226;BME280;36113;50.742;6.432;2023-07-09T10:15:31;98993.84;;;34.38;27.33
50226;BME280;36113;50.742;6.432;2023-07-09T10:18:00;98997.91;;;34.37;25.87
50226;BME280;36113;50.742;6.432;2023-07-09T10:20:45;98965.50;;;34.21;26.22
50226;BME280;36113;50.742;6.432;2023-07-09T10:26:12;98995.22;;;34.77;27.78
50226;BME280;36113;50.742;6.432;2023-07-09T10:28:43;98993.69;;;34.72;26.40
50226;BME280;36113;50.742;6.432;2023-07-09T10:31:19;98990.31;;;34.81;27.65
50226;BME280;36113;50.742;6.432;2023-07-09T10:39:13;98985.34;;;35.09;26.06
50226;BME280;36113;50.742;6.432;2023-07-09T10:41:41;98980.19;;;35.03;26.88
50226;BME280;36113;50.742;6.432;2023-07-09T10:44:24;98924.25;;;34.75;27.06
50226;BME280;36113;50.742;6.432;2023-07-09T10:46:57;98973.34;;;35.24;26.56
50226;BME280;36113;50.742;6.432;2023-07-09T10:49:30;98979.34;;;35.47;26.24
50226;BME280;36113;50.742;6.432;2023-07-09T10:54:59;98972.47;;;35.48;27.57
50226;BME280;36113;50.742;6.432;2023-07-09T11:00:04;98973.13;;;35.92;25.55
50226;BME280;36113;50.742;6.432;2023-07-09T11:02:33;98958.50;;;35.93;25.63
50226;BME280;36113;50.742;6.432;2023-07-09T11:05:05;98958.19;;;36.08;25.26
50226;BME280;36113;50.742;6.432;2023-07-09T11:08:01;98955.91;;;36.02;24.85
50226;BME280;36113;50.742;6.432;2023-07-09T11:10:41;98929.19;;;35.87;24.85
50226;BME280;36113;50.742;6.432;2023-07-09T11:15:56;98942.97;;;36.01;25.19
50226;BME280;36113;50.742;6.432;2023-07-09T11:18:26;98934.41;;;36.05;25.04
50226;BME280;36113;50.742;6.432;2023-07-09T11:21:03;98960.25;;;36.23;25.82
50226;BME280;36113;50.742;6.432;2023-07-09T11:23:59;98960.53;;;36.29;25.60
50226;BME280;36113;50.742;6.432;2023-07-09T11:26:33;98960.69;;;36.22;23.98
50226;BME280;36113;50.742;6.432;2023-07-09T11:31:41;98950.50;;;36.41;24.10
50226;BME280;36113;50.742;6.432;2023-07-09T11:36:32;98955.28;;;36.60;24.00
50226;BME280;36113;50.742;6.432;2023-07-09T11:38:58;98949.16;;;36.62;24.92
50226;BME280;36113;50.742;6.432;2023-07-09T11:41:42;98955.00;;;36.71;23.91
50226;BME280;36113;50.742;6.432;2023-07-09T11:44:19;98941.13;;;36.90;23.79
50226;BME280;36113;50.742;6.432;2023-07-09T11:49:54;98954.91;;;36.75;24.20
50226;BME280;36113;50.742;6.432;2023-07-09T11:52:32;98963.03;;;37.02;24.93
50226;BME280;36113;50.742;6.432;2023-07-09T11:55:07;98967.75;;;37.08;24.23
50226;BME280;36113;50.742;6.432;2023-07-09T11:57:47;98960.56;;;37.04;24.00
50226;BME280;36113;50.742;6.432;2023-07-09T12:00:14;98963.25;;;37.11;24.15
50226;BME280;36113;50.742;6.432;2023-07-09T12:02:40;98962.50;;;37.07;24.36
50226;BME280;36113;50.742;6.432;2023-07-09T12:05:06;98934.06;;;36.81;23.42
50226;BME280;36113;50.742;6.432;2023-07-09T12:07:32;98945.53;;;36.78;23.71
50226;BME280;36113;50.742;6.432;2023-07-09T12:09:57;98934.38;;;36.71;24.06
50226;BME280;36113;50.742;6.432;2023-07-09T12:12:25;98936.22;;;36.77;24.02
50226;BME280;36113;50.742;6.432;2023-07-09T12:14:51;98935.06;;;36.75;24.97
50226;BME280;36113;50.742;6.432;2023-07-09T12:17:17;98935.53;;;36.73;23.99
50226;BME280;36113;50.742;6.432;2023-07-09T12:19:43;98912.16;;;36.69;24.19
50226;BME280;36113;50.742;6.432;2023-07-09T12:22:18;98926.69;;;36.71;24.26
50226;BME280;36113;50.742;6.432;2023-07-09T12:24:47;98925.34;;;36.76;23.88
50226;BME280;36113;50.742;6.432;2023-07-09T12:27:31;98900.22;;;36.61;25.05
50226;BME280;36113;50.742;6.432;2023-07-09T12:30:02;98924.66;;;36.72;24.80
50226;BME280;36113;50.742;6.432;2023-07-09T12:32:27;98930.06;;;36.50;24.12
50226;BME280;36113;50.742;6.432;2023-07-09T12:34:55;98915.31;;;36.09;24.54
50226;BME280;36113;50.742;6.432;2023-07-09T12:37:25;98915.03;;;36.03;25.22
50226;BME280;36113;50.742;6.432;2023-07-09T12:39:53;98894.69;;;35.92;25.32
50226;BME280;36113;50.742;6.432;2023-07-09T12:42:30;98909.16;;;35.78;25.09
50226;BME280;36113;50.742;6.432;2023-07-09T12:44:56;98911.91;;;35.65;25.75
50226;BME280;36113;50.742;6.432;2023-07-09T12:47:23;98922.53;;;35.41;25.79
50226;BME280;36113;50.742;6.432;2023-07-09T12:49:49;98899.41;;;35.06;26.21
50226;BME280;36113;50.742;6.432;2023-07-09T12:52:22;98929.41;;;35.00;26.01
50226;BME280;36113;50.742;6.432;2023-07-09T12:55:19;98936.16;;;34.86;26.36
50226;BME280;36113;50.742;6.432;2023-07-09T12:57:47;98903.94;;;34.60;26.42
50226;BME280;36113;50.742;6.432;2023-07-09T13:00:23;98929.53;;;34.49;27.87
50226;BME280;36113;50.742;6.432;2023-07-09T13:02:54;98929.94;;;34.28;27.16
50226;BME280;36113;50.742;6.432;2023-07-09T13:05:25;98909.41;;;34.00;28.07
50226;BME280;36113;50.742;6.432;2023-07-09T13:07:53;98940.00;;;34.01;28.38
50226;BME280;36113;50.742;6.432;2023-07-09T13:10:23;98926.13;;;33.87;27.67
50226;BME280;36113;50.742;6.432;2023-07-09T13:12:52;98929.09;;;33.76;27.99
50226;BME280;36113;50.742;6.432;2023-07-09T13:15:38;98923.31;;;33.56;29.27
50226;BME280;36113;50.742;6.432;2023-07-09T13:18:05;98923.94;;;33.40;29.52
50226;BME280;36113;50.742;6.432;2023-07-09T13:20:38;98903.41;;;33.13;29.68
50226;BME280;36113;50.742;6.432;2023-07-09T13:23:09;98906.81;;;32.93;29.43
50226;BME280;36113;50.742;6.432;2023-07-09T13:25:37;98934.31;;;32.82;29.94
50226;BME280;36113;50.742;6.432;2023-07-09T13:28:03;98940.47;;;32.70;30.11
50226;BME280;36113;50.742;6.432;2023-07-09T13:30:28;98938.97;;;32.62;30.01
50226;BME280;36113;50.742;6.432;2023-07-09T13:32:53;98924.56;;;32.49;30.02
50226;BME280;36113;50.742;6.432;2023-07-09T13:35:19;98926.75;;;32.30;30.64